This is the latest recevied weather packets stored in our database for station/object CYAW. If no packets are shown the sender has not sent any weather packets the latest 1 day(s).
| Time | Temp. | Humidity | Pressure | Rain* | Wind** | Luminosity | Snow |
|---|---|---|---|---|---|---|---|
| 1778091200 | 17.78° C | 63% | 1017.9 hPa | - | - | - | - |
| 1778088201 | 16.67° C | 67% | 1021 hPa | - | - | - | - |
| 1778083523 | 15° C | 72% | 1019 hPa | - | - | - | - |
| 1778082805 | 15° C | 72% | 1019 hPa | - | - | - | - |
| 1778076197 | 13.89° C | 82% | 1018.3 hPa | - | - | - | - |
| 1778074394 | 13.89° C | 82% | 1018.3 hPa | - | - | - | - |
| 1778073796 | 13.89° C | 82% | 1018.3 hPa | - | - | - | - |
| 1778073199 | 13.89° C | 82% | 1018.3 hPa | - | - | - | - |
| 1778072600 | - | - | 1022 hPa | - | - | - | - |
| 1778070199 | 10.56° C | 93% | 1018.3 hPa | - | - | - | - |
| 1778068398 | 10° C | 93% | 1018.3 hPa | - | - | - | - |
| 1778067196 | 10° C | 93% | 1018.3 hPa | - | - | - | - |
| 1778066601 | 10° C | 93% | 1018.3 hPa | - | - | - | - |
| 1778066000 | 10° C | 93% | 1018.3 hPa | - | - | - | - |
| 1778035996 | 13.89° C | 71% | 1013.9 hPa | - | - | - | - |
| 1778035396 | 13.89° C | 71% | 1013.9 hPa | - | - | - | - |
| 1778034795 | 13.89° C | 71% | 1013.9 hPa | - | - | - | - |
| 1778034197 | 13.89° C | 71% | 1013.9 hPa | - | - | - | - |
| 1778033597 | 13.89° C | 71% | 1013.9 hPa | - | - | - | - |
| 1778032998 | 13.89° C | 71% | 1013.9 hPa | - | - | - | - |
| 1778031797 | 13.89° C | 71% | 1013.9 hPa | - | - | - | - |
| 1778031197 | 13.89° C | 71% | 1013.9 hPa | - | - | - | - |
| 1778029998 | 13.89° C | 71% | 1013.9 hPa | - | - | - | - |
| 1778029395 | 13.89° C | 71% | 1013.9 hPa | - | - | - | - |
| 1778028798 | 13.89° C | 71% | 1013.9 hPa | - | - | - | - |
* Rain since midnight (hover to see other rain measurements)
** Current wind speed in m/s (hover to see current wind gust speed)